This is the latest recevied weather packets stored in our database for station/object IZ1UKX-13. If no packets are shown the sender has not sent any weather packets the latest 10 day(s).
| Time | Temp. | Humidity | Pressure | Rain* | Wind** | Luminosity | Snow |
|---|---|---|---|---|---|---|---|
| 1777777156 | 5.56° C | 78% | 1026.2 hPa | 0 mm | - | 0 W/m² | - |
| 1777776856 | 5.56° C | 77% | 1026.2 hPa | 0 mm | - | 0 W/m² | - |
| 1777776556 | 5.56° C | 77% | 1026.2 hPa | 0 mm | - | 0 W/m² | - |
| 1777776256 | 6.11° C | 76% | 1026.2 hPa | 0 mm | - | 0 W/m² | - |
| 1777775956 | 6.11° C | 76% | 1026.2 hPa | 0 mm | - | 0 W/m² | - |
| 1777775660 | 6.11° C | 76% | 1026.2 hPa | 0 mm | - | 0 W/m² | - |
| 1777775356 | 6.11° C | 76% | 1026.2 hPa | 0 mm | - | 0 W/m² | - |
| 1777775056 | 6.11° C | 77% | 1026.2 hPa | 0 mm | - | 0 W/m² | - |
| 1777774456 | 5.56° C | 79% | 1026.2 hPa | 0 mm | - | 0 W/m² | - |
| 1777774156 | 5.56° C | 79% | 1026.2 hPa | 0 mm | - | 0 W/m² | - |
| 1777773556 | 5.56° C | 80% | 1026.2 hPa | 0 mm | - | 0 W/m² | - |
| 1777772656 | 5.56° C | 80% | 1026.2 hPa | 0 mm | - | 0 W/m² | - |
| 1777769956 | 5.56° C | 78% | 1026.2 hPa | 0 mm | - | 0 W/m² | - |
| 1777766656 | 6.11° C | 77% | 1025.8 hPa | 0 mm | - | 0 W/m² | - |
| 1777765756 | 6.67° C | 76% | 1025.8 hPa | 0 mm | - | 0 W/m² | - |
| 1777764556 | 7.22° C | 75% | 1025.8 hPa | 0 mm | - | 0 W/m² | - |
| 1777762156 | 7.78° C | 72% | 1025.8 hPa | 0 mm | - | 0 W/m² | - |
| 1777761856 | 7.78° C | 72% | 1025.8 hPa | 0 mm | - | 0 W/m² | - |
| 1777761556 | 7.78° C | 73% | 1025.8 hPa | 0 mm | - | 0 W/m² | - |
| 1777761257 | 7.78° C | 75% | 1025.8 hPa | 0 mm | - | 0 W/m² | - |
| 1777760956 | 7.78° C | 75% | 1025.8 hPa | 0 mm | - | 0 W/m² | - |
| 1777760356 | 7.78° C | 76% | 1025.8 hPa | 0 mm | - | 0 W/m² | - |
| 1777760056 | 7.78° C | 74% | 1025.8 hPa | 0 mm | - | 0 W/m² | - |
| 1777759756 | 8.33° C | 73% | 1025.4 hPa | 0 mm | - | 0 W/m² | - |
| 1777759456 | 8.33° C | 74% | 1025.4 hPa | 0 mm | - | 0 W/m² | - |
* Rain latest hour (hover to see other rain measurements)
** Current wind speed in m/s (hover to see current wind gust speed)